createdAt,value
2023-01-20T00:04:01.388Z,19.20
2023-01-20T00:06:30.585Z,20.07
2023-01-20T00:09:00.522Z,19.93
2023-01-20T00:11:28.911Z,21.00
2023-01-20T00:14:00.865Z,21.83
2023-01-20T00:16:28.687Z,21.33
2023-01-20T00:18:55.629Z,22.07
2023-01-20T00:21:23.192Z,22.13
2023-01-20T00:23:53.147Z,23.37
2023-01-20T00:26:22.284Z,23.43
2023-01-20T00:28:50.014Z,22.73
2023-01-20T00:31:19.854Z,23.57
2023-01-20T00:33:48.096Z,24.33
2023-01-20T00:36:16.712Z,24.77
2023-01-20T00:38:43.796Z,23.70
2023-01-20T00:41:11.182Z,24.63
2023-01-20T00:43:38.130Z,24.03
2023-01-20T00:46:06.052Z,23.77
2023-01-20T00:48:33.799Z,23.40
2023-01-20T00:51:01.542Z,23.37
2023-01-20T00:53:28.402Z,21.97
2023-01-20T00:55:55.231Z,23.33
2023-01-20T00:58:22.124Z,23.27
2023-01-20T01:00:51.057Z,23.37
2023-01-20T01:03:18.377Z,23.47
2023-01-20T01:05:45.881Z,24.20
2023-01-20T01:08:13.529Z,23.57
2023-01-20T01:10:40.754Z,21.37
2023-01-20T01:13:08.710Z,22.93
2023-01-20T01:15:35.694Z,22.20
2023-01-20T01:18:02.588Z,21.07
2023-01-20T01:20:29.567Z,21.53
2023-01-20T01:23:00.120Z,21.53
2023-01-20T01:25:26.994Z,20.77
2023-01-20T01:28:08.559Z,20.47
2023-01-20T01:30:41.921Z,20.63
2023-01-20T01:36:53.877Z,20.07
2023-01-20T01:39:20.793Z,19.87
2023-01-20T01:41:50.537Z,19.03
2023-01-20T01:44:17.574Z,20.17
2023-01-20T01:46:45.613Z,20.77
2023-01-20T01:49:12.404Z,19.20
2023-01-20T01:51:46.626Z,20.07
2023-01-20T01:54:20.368Z,18.90
2023-01-20T01:56:49.672Z,19.17
2023-01-20T01:59:18.288Z,19.00
2023-01-20T02:01:50.214Z,18.90
2023-01-20T02:04:21.956Z,18.97
2023-01-20T02:06:53.431Z,18.23
2023-01-20T02:09:20.673Z,19.50
2023-01-20T02:11:51.838Z,18.63
2023-01-20T02:14:24.290Z,18.53
2023-01-20T02:17:14.783Z,18.57
2023-01-20T02:20:19.502Z,18.17
2023-01-20T02:23:09.263Z,18.43
2023-01-20T02:25:52.778Z,17.27
2023-01-20T02:29:00.645Z,16.50
2023-01-20T02:32:12.139Z,17.67
2023-01-20T02:34:43.255Z,17.50
2023-01-20T02:37:19.992Z,16.87
2023-01-20T02:40:21.931Z,17.67
2023-01-20T02:42:54.710Z,16.97
2023-01-20T02:45:37.213Z,16.63
2023-01-20T02:48:29.667Z,17.37
2023-01-20T02:51:19.119Z,16.80
2023-01-20T02:53:53.063Z,17.27
2023-01-20T02:56:23.542Z,16.77
2023-01-20T02:58:56.301Z,16.90
2023-01-20T03:01:37.932Z,17.03
2023-01-20T03:04:06.975Z,17.50
2023-01-20T03:06:39.101Z,17.30
2023-01-20T03:09:12.550Z,17.83
2023-01-20T03:11:45.857Z,17.83
2023-01-20T03:14:14.734Z,17.23
2023-01-20T03:16:41.991Z,17.00
2023-01-20T03:19:10.638Z,17.87
2023-01-20T03:21:37.477Z,17.23
2023-01-20T03:24:05.573Z,17.10
2023-01-20T03:26:33.962Z,17.07
2023-01-20T03:29:09.289Z,16.97
2023-01-20T03:31:49.314Z,17.10
2023-01-20T03:34:21.334Z,16.90
2023-01-20T03:36:49.383Z,16.97
2023-01-20T03:39:17.401Z,17.60
2023-01-20T03:42:07.622Z,17.50
2023-01-20T03:44:43.629Z,17.00
2023-01-20T03:47:28.679Z,17.70
2023-01-20T03:50:11.139Z,17.03
2023-01-20T03:53:01.724Z,16.60
2023-01-20T03:55:37.770Z,17.90
2023-01-20T03:58:12.093Z,17.33
2023-01-20T04:00:43.315Z,18.57
2023-01-20T04:03:23.963Z,18.63
2023-01-20T04:05:51.956Z,18.40
2023-01-20T04:08:22.428Z,19.00
2023-01-20T04:10:50.926Z,20.10
2023-01-20T04:13:17.932Z,19.63
2023-01-20T04:15:46.139Z,19.17
2023-01-20T04:18:21.573Z,19.13
2023-01-20T04:21:01.764Z,20.17
2023-01-20T04:23:40.021Z,18.00
2023-01-20T04:26:06.840Z,20.00
2023-01-20T04:28:33.594Z,18.70
2023-01-20T04:31:00.462Z,18.67
2023-01-20T04:33:27.421Z,18.07
2023-01-20T04:35:54.297Z,19.10
2023-01-20T04:38:21.104Z,19.17
2023-01-20T04:40:47.923Z,19.70
2023-01-20T04:43:15.605Z,19.90
2023-01-20T04:45:42.546Z,20.23
2023-01-20T04:48:09.771Z,19.57
2023-01-20T04:50:40.957Z,20.00
2023-01-20T04:53:11.656Z,20.30
2023-01-20T04:55:38.496Z,20.10
2023-01-20T04:58:05.386Z,18.77
2023-01-20T05:00:32.163Z,18.47
2023-01-20T05:02:59.279Z,17.33
2023-01-20T05:05:26.178Z,17.97
2023-01-20T05:07:53.510Z,17.50
2023-01-20T05:10:20.711Z,17.90
2023-01-20T05:12:51.476Z,17.97
2023-01-20T05:15:18.456Z,18.43
2023-01-20T05:17:47.201Z,17.90
2023-01-20T05:20:14.595Z,17.30
2023-01-20T05:22:41.523Z,17.73
2023-01-20T05:25:08.928Z,17.00
2023-01-20T05:27:36.664Z,17.43
2023-01-20T05:30:06.276Z,17.13
2023-01-20T05:32:33.386Z,17.10
2023-01-20T05:35:00.215Z,16.93
2023-01-20T05:37:27.100Z,16.87
2023-01-20T05:39:53.956Z,16.53
2023-01-20T05:42:20.881Z,17.57
2023-01-20T05:44:47.708Z,17.13
2023-01-20T05:47:16.666Z,17.13
2023-01-20T05:49:43.603Z,16.33
2023-01-20T05:52:10.614Z,15.83
2023-01-20T05:54:37.623Z,16.60
2023-01-20T05:57:05.894Z,16.07
2023-01-20T05:59:33.014Z,17.73
2023-01-20T06:01:59.855Z,16.43
2023-01-20T06:04:26.813Z,16.27
2023-01-20T06:06:53.676Z,18.17
2023-01-20T06:09:20.619Z,17.73
2023-01-20T06:11:47.613Z,18.33
2023-01-20T06:14:15.523Z,18.63
2023-01-20T06:16:42.419Z,18.03
2023-01-20T06:19:11.733Z,17.90
2023-01-20T06:21:38.871Z,19.13
2023-01-20T06:24:06.265Z,19.77
2023-01-20T06:26:36.340Z,17.80
2023-01-20T06:29:08.586Z,19.70
2023-01-20T06:31:48.895Z,19.30
2023-01-20T06:34:18.540Z,19.27
2023-01-20T06:37:56.525Z,20.23
2023-01-20T06:41:00.545Z,18.63
2023-01-20T06:44:02.082Z,18.93
2023-01-20T07:20:14.243Z,12.38
2023-01-20T08:07:05.435Z,19.23
2023-01-20T08:49:54.028Z,17.60
2023-01-20T08:52:21.180Z,18.20
2023-01-20T08:54:51.144Z,17.07
2023-01-20T08:57:18.055Z,17.63
2023-01-20T08:59:46.958Z,17.97
2023-01-20T09:02:13.960Z,17.23
2023-01-20T09:04:41.609Z,16.17
2023-01-20T09:07:33.829Z,16.83
2023-01-20T09:10:02.906Z,16.43
2023-01-20T09:12:39.035Z,16.20
2023-01-20T09:15:09.732Z,16.73
2023-01-20T09:17:48.783Z,16.57
2023-01-20T09:20:30.385Z,16.83
2023-01-20T10:00:03.970Z,13.67
2023-01-20T10:05:17.592Z,14.67
2023-01-20T10:30:17.838Z,13.70
2023-01-20T10:56:29.837Z,15.43
2023-01-20T11:00:01.837Z,14.00
2023-01-20T11:03:02.270Z,14.00
2023-01-20T11:25:12.664Z,15.13
2023-01-20T11:27:48.340Z,14.57
2023-01-20T11:30:42.507Z,13.83
2023-01-20T11:33:15.681Z,13.70
2023-01-20T11:36:00.071Z,14.43
2023-01-20T11:38:46.090Z,13.43
2023-01-20T11:41:45.445Z,13.27
2023-01-20T11:44:56.212Z,13.13
2023-01-20T11:47:36.470Z,12.87
2023-01-20T11:50:10.175Z,13.20
2023-01-20T11:52:46.612Z,14.27
2023-01-20T11:55:51.185Z,12.80
2023-01-20T11:58:28.476Z,13.30
2023-01-20T12:01:34.371Z,13.60
2023-01-20T12:04:35.343Z,13.03
2023-01-20T12:07:05.706Z,13.63
2023-01-20T12:09:38.666Z,13.67
2023-01-20T12:12:15.276Z,14.03
2023-01-20T12:14:50.327Z,12.93
2023-01-20T12:17:46.294Z,13.70
2023-01-20T12:20:30.516Z,14.30
2023-01-20T12:23:28.574Z,15.47
2023-01-20T12:25:58.877Z,14.20
2023-01-20T12:28:51.095Z,14.20
2023-01-20T12:31:20.459Z,13.97
2023-01-20T12:34:12.445Z,14.47
2023-01-20T12:37:00.288Z,14.43
2023-01-20T12:39:48.187Z,15.00
2023-01-20T12:42:52.465Z,14.50
2023-01-20T12:45:39.746Z,15.57
2023-01-20T12:48:36.891Z,14.50
2023-01-20T12:51:32.680Z,15.00
2023-01-20T12:54:02.343Z,13.53
2023-01-20T12:56:44.380Z,14.63
2023-01-20T12:59:27.301Z,14.60
2023-01-20T13:02:18.107Z,14.57
2023-01-20T13:04:57.330Z,13.97
2023-01-20T13:07:49.479Z,12.20
2023-01-20T13:10:25.470Z,12.87
2023-01-20T13:13:18.444Z,11.70
2023-01-20T13:15:59.456Z,11.10
2023-01-20T13:18:44.992Z,10.93
2023-01-20T13:21:19.153Z,10.40
2023-01-20T13:23:47.880Z,10.57
2023-01-20T13:26:15.757Z,10.17
2023-01-20T13:28:54.019Z,10.70
2023-01-20T13:31:44.544Z,11.07
2023-01-20T13:34:23.525Z,11.20
2023-01-20T13:37:02.951Z,11.37
2023-01-20T13:39:29.964Z,9.83
2023-01-20T13:41:59.022Z,10.90
2023-01-20T13:44:35.370Z,10.03
2023-01-20T13:47:04.040Z,9.70
2023-01-20T13:49:49.834Z,10.17
2023-01-20T13:52:54.900Z,9.47
2023-01-20T13:55:50.887Z,8.77
2023-01-20T13:58:23.882Z,8.80
2023-01-20T14:01:26.908Z,9.03
2023-01-20T14:04:24.279Z,8.10
2023-01-20T14:06:52.520Z,8.20
2023-01-20T14:09:32.371Z,7.80
2023-01-20T14:11:59.313Z,7.80
2023-01-20T14:14:28.137Z,7.77
2023-01-20T14:16:57.570Z,8.10
2023-01-20T14:19:36.687Z,7.70
2023-01-20T14:22:26.311Z,7.87
2023-01-20T14:24:59.056Z,9.23
2023-01-20T14:27:35.578Z,8.23
2023-01-20T14:30:25.134Z,9.10
2023-01-20T14:32:53.086Z,9.50
2023-01-20T14:35:41.683Z,8.93
2023-01-20T14:38:18.792Z,9.50
2023-01-20T14:41:34.442Z,9.40
2023-01-20T14:44:21.608Z,10.00
2023-01-20T14:47:28.241Z,10.63
2023-01-20T14:49:59.164Z,11.03
2023-01-20T14:52:41.192Z,11.53
2023-01-20T14:55:52.276Z,11.70
2023-01-20T14:58:55.024Z,12.00
2023-01-20T15:01:25.757Z,11.93
2023-01-20T15:04:01.934Z,11.63
2023-01-20T15:06:28.991Z,11.80
2023-01-20T15:09:06.723Z,10.80
2023-01-20T15:11:35.708Z,11.13
2023-01-20T15:14:04.911Z,11.83
2023-01-20T15:16:43.129Z,11.97
2023-01-20T15:19:19.858Z,11.73
2023-01-20T15:21:53.614Z,11.33
2023-01-20T15:24:30.621Z,11.90
2023-01-20T15:27:00.528Z,11.57
2023-01-20T15:29:35.615Z,11.87
2023-01-20T15:32:10.865Z,12.87
2023-01-20T15:34:37.754Z,12.87
2023-01-20T15:37:15.261Z,12.73
2023-01-20T15:39:42.079Z,12.53
2023-01-20T15:42:12.163Z,14.10
2023-01-20T15:44:38.994Z,13.53
2023-01-20T15:47:21.785Z,13.70
2023-01-20T15:49:48.642Z,12.97
2023-01-20T15:52:15.526Z,13.07
2023-01-20T15:54:42.340Z,13.00
2023-01-20T15:57:14.451Z,13.00
2023-01-20T15:59:45.243Z,12.20
2023-01-20T16:02:20.781Z,11.80
2023-01-20T16:05:55.987Z,11.63
2023-01-20T16:08:57.835Z,10.87
2023-01-20T16:15:10.367Z,11.73
2023-01-20T16:17:37.467Z,11.47
2023-01-20T16:20:05.687Z,11.40
2023-01-20T16:22:32.508Z,11.03
2023-01-20T16:24:59.354Z,9.53
2023-01-20T16:27:26.335Z,9.37
2023-01-20T16:29:53.643Z,9.30
2023-01-20T16:32:22.506Z,9.40
2023-01-20T16:34:49.601Z,10.00
2023-01-20T16:37:16.467Z,10.63
2023-01-20T16:39:43.384Z,11.20
2023-01-20T16:42:15.588Z,10.97
2023-01-20T16:44:42.533Z,11.83
2023-01-20T16:47:09.489Z,12.37
2023-01-20T16:49:36.442Z,12.50
2023-01-20T16:52:03.459Z,12.50
2023-01-20T16:54:30.535Z,11.17
2023-01-20T16:56:58.543Z,11.53
2023-01-20T16:59:26.067Z,8.13
2023-01-20T17:01:53.006Z,7.50
2023-01-20T17:04:19.939Z,7.23
2023-01-20T17:06:46.843Z,7.10
2023-01-20T17:09:14.163Z,7.53
2023-01-20T17:11:41.151Z,7.37
2023-01-20T17:14:09.687Z,7.50
2023-01-20T17:16:37.911Z,8.27
2023-01-20T17:19:05.882Z,8.30
2023-01-20T17:21:41.893Z,8.07
2023-01-20T17:24:12.720Z,9.00
2023-01-20T17:26:51.858Z,8.43
2023-01-20T17:32:04.769Z,9.07
2023-01-20T17:34:33.428Z,8.97
2023-01-20T17:37:08.507Z,8.93
2023-01-20T17:39:40.034Z,8.47
2023-01-20T17:42:07.442Z,8.87
2023-01-20T17:44:35.421Z,8.53
2023-01-20T17:47:02.279Z,9.43
2023-01-20T17:49:29.208Z,9.50
2023-01-20T17:51:56.051Z,10.00
2023-01-20T17:54:23.004Z,9.23
2023-01-20T17:56:49.834Z,8.93
2023-01-20T17:59:16.845Z,9.10
2023-01-20T18:01:44.374Z,9.77
2023-01-20T18:04:11.273Z,9.30
2023-01-20T18:06:38.694Z,9.80
2023-01-20T18:09:07.443Z,9.37
2023-01-20T18:11:37.314Z,9.93
2023-01-20T18:14:05.389Z,9.27
2023-01-20T18:16:34.838Z,10.03
2023-01-20T18:19:02.524Z,10.17
2023-01-20T18:21:31.944Z,10.30
2023-01-20T18:23:59.444Z,10.47
2023-01-20T18:26:31.525Z,10.87
2023-01-20T18:29:01.192Z,10.00
2023-01-20T18:31:30.141Z,10.07
2023-01-20T18:34:00.128Z,10.97
2023-01-20T18:36:33.420Z,10.60
2023-01-20T18:39:02.783Z,10.13
2023-01-20T18:41:31.175Z,9.90
2023-01-20T18:43:58.858Z,11.00
2023-01-20T18:46:29.175Z,11.47
2023-01-20T18:48:56.474Z,11.03
2023-01-20T18:51:29.089Z,10.70
2023-01-20T18:54:10.438Z,9.97
2023-01-20T18:56:37.780Z,10.50
2023-01-20T18:59:06.746Z,10.13
2023-01-20T19:01:45.003Z,10.17
2023-01-20T19:04:13.431Z,10.17
2023-01-20T19:06:42.401Z,9.80
2023-01-20T19:09:10.133Z,10.13
2023-01-20T19:11:39.831Z,9.17
2023-01-20T19:14:09.403Z,9.43
2023-01-20T19:16:42.304Z,10.30
2023-01-20T19:19:13.213Z,9.43
2023-01-20T19:21:40.587Z,9.60
2023-01-20T19:24:14.103Z,9.17
2023-01-20T19:26:46.723Z,10.33
2023-01-20T19:29:16.242Z,9.60
2023-01-20T19:31:43.289Z,10.33
2023-01-20T19:34:10.536Z,10.23
2023-01-20T19:36:37.677Z,10.70
2023-01-20T19:39:05.785Z,9.40
2023-01-20T19:41:34.479Z,9.77
2023-01-20T19:44:03.450Z,9.70
2023-01-20T19:46:33.815Z,9.50
2023-01-20T19:49:02.487Z,9.30
2023-01-20T19:51:31.331Z,9.00
2023-01-20T19:54:00.366Z,8.60
2023-01-20T19:56:33.079Z,8.70
2023-01-20T19:59:00.866Z,8.97
2023-01-20T20:01:32.927Z,8.03
2023-01-20T20:04:05.620Z,8.37
2023-01-20T20:06:38.325Z,8.40
2023-01-20T20:09:13.951Z,8.37
2023-01-20T20:11:40.852Z,7.70
2023-01-20T20:14:11.003Z,8.00
2023-01-20T20:16:38.963Z,8.23
2023-01-20T20:19:10.951Z,9.00
2023-01-20T20:21:37.930Z,8.23
2023-01-20T20:24:05.452Z,8.13
2023-01-20T20:26:36.121Z,8.43
2023-01-20T20:29:07.999Z,8.10
2023-01-20T20:31:37.570Z,9.00
2023-01-20T20:34:06.662Z,8.80
2023-01-20T20:36:36.565Z,8.30
2023-01-20T20:39:05.020Z,8.53
2023-01-20T20:41:35.269Z,8.63
2023-01-20T20:44:03.130Z,8.67
2023-01-20T20:46:30.073Z,7.80
2023-01-20T20:49:01.315Z,8.20
2023-01-20T20:51:33.556Z,8.07
2023-01-20T20:54:03.292Z,8.60
